createdAt,value
2023-05-05T00:00:28.189Z,1.30
2023-05-05T00:03:30.846Z,0.90
2023-05-05T00:06:33.718Z,1.38
2023-05-05T00:09:36.533Z,1.30
2023-05-05T00:12:39.373Z,1.30
2023-05-05T00:15:41.887Z,1.35
2023-05-05T00:18:44.419Z,1.23
2023-05-05T00:21:47.373Z,0.93
2023-05-05T00:24:50.519Z,1.10
2023-05-05T00:27:53.045Z,1.20
2023-05-05T00:30:55.727Z,1.20
2023-05-05T00:33:58.658Z,1.05
2023-05-05T00:37:00.873Z,1.10
2023-05-05T00:40:03.672Z,1.08
2023-05-05T00:43:05.741Z,1.30
2023-05-05T00:46:09.057Z,1.00
2023-05-05T00:49:11.620Z,1.20
2023-05-05T00:52:14.308Z,1.40
2023-05-05T00:55:16.989Z,1.20
2023-05-05T00:58:21.069Z,1.30
2023-05-05T01:01:23.924Z,1.20
2023-05-05T01:04:27.719Z,1.20
2023-05-05T01:07:30.089Z,1.02
2023-05-05T01:10:32.563Z,1.15
2023-05-05T01:13:36.071Z,1.30
2023-05-05T01:16:39.535Z,1.10
2023-05-05T01:19:41.875Z,0.95
2023-05-05T01:22:43.985Z,1.20
2023-05-05T01:25:46.713Z,1.30
2023-05-05T01:28:51.450Z,1.20
2023-05-05T01:31:54.373Z,1.20
2023-05-05T01:34:57.574Z,1.30
2023-05-05T01:37:59.963Z,1.17
2023-05-05T01:41:02.684Z,1.30
2023-05-05T01:44:06.155Z,1.25
2023-05-05T01:47:09.260Z,1.00
2023-05-05T01:50:11.580Z,1.20
2023-05-05T01:53:14.211Z,1.23
2023-05-05T01:56:16.491Z,1.20
2023-05-05T01:59:18.887Z,1.30
2023-05-05T02:02:21.513Z,1.38
2023-05-05T02:05:23.950Z,1.40
2023-05-05T02:08:26.424Z,1.52
2023-05-05T02:11:30.125Z,1.50
2023-05-05T02:14:32.483Z,1.45
2023-05-05T02:17:35.740Z,1.67
2023-05-05T02:20:38.358Z,1.50
2023-05-05T02:23:41.127Z,1.42
2023-05-05T02:26:43.764Z,1.55
2023-05-05T02:29:47.088Z,1.23
2023-05-05T02:32:50.310Z,1.40
2023-05-05T02:35:54.182Z,1.33
2023-05-05T02:38:59.210Z,1.30
2023-05-05T02:42:03.689Z,1.42
2023-05-05T02:45:06.177Z,1.55
2023-05-05T02:48:09.572Z,1.45
2023-05-05T02:51:14.305Z,1.60
2023-05-05T02:54:17.205Z,1.52
2023-05-05T02:57:20.279Z,1.50
2023-05-05T03:00:31.401Z,1.67
2023-05-05T03:03:34.026Z,1.75
2023-05-05T03:06:36.371Z,1.40
2023-05-05T03:09:39.152Z,1.58
2023-05-05T03:12:42.723Z,1.67
2023-05-05T03:15:51.948Z,1.52
2023-05-05T03:18:57.801Z,1.70
2023-05-05T03:22:01.878Z,1.67
2023-05-05T03:25:04.683Z,1.80
2023-05-05T03:28:07.610Z,1.58
2023-05-05T03:31:10.753Z,1.40
2023-05-05T03:34:14.225Z,1.70
2023-05-05T03:37:21.610Z,1.60
2023-05-05T03:40:36.239Z,1.67
2023-05-05T03:43:46.843Z,1.80
2023-05-05T03:46:49.829Z,1.77
2023-05-05T03:49:53.643Z,1.80
2023-05-05T03:52:55.904Z,1.70
2023-05-05T03:55:58.724Z,1.63
2023-05-05T03:59:01.723Z,2.05
2023-05-05T04:02:04.980Z,1.88
2023-05-05T04:05:09.239Z,1.98
2023-05-05T04:08:11.722Z,1.80
2023-05-05T04:11:14.427Z,1.70
2023-05-05T04:14:17.315Z,1.90
2023-05-05T04:17:19.643Z,1.83
2023-05-05T04:20:22.191Z,1.50
2023-05-05T04:23:25.614Z,1.35
2023-05-05T04:26:28.813Z,1.60
2023-05-05T04:29:31.609Z,1.60
2023-05-05T04:32:35.481Z,1.60
2023-05-05T04:35:38.259Z,1.50
2023-05-05T04:38:40.544Z,1.60
2023-05-05T04:41:43.362Z,1.30
2023-05-05T04:44:46.844Z,1.67
2023-05-05T04:47:49.550Z,1.92
2023-05-05T04:50:52.493Z,1.65
2023-05-05T04:53:55.502Z,1.60
2023-05-05T04:56:58.908Z,1.50
2023-05-05T05:00:01.521Z,1.80
2023-05-05T05:03:04.442Z,1.48
2023-05-05T05:06:08.559Z,1.60
2023-05-05T05:09:12.304Z,1.50
2023-05-05T05:12:14.931Z,1.38
2023-05-05T05:15:17.116Z,1.60
2023-05-05T05:18:19.909Z,1.55
2023-05-05T05:21:23.514Z,1.30
2023-05-05T05:24:26.317Z,1.80
2023-05-05T05:27:29.764Z,1.55
2023-05-05T05:30:33.628Z,1.63
2023-05-05T05:33:39.570Z,1.60
2023-05-05T05:36:41.928Z,1.70
2023-05-05T05:39:44.427Z,1.40
2023-05-05T05:42:47.668Z,1.30
2023-05-05T05:45:50.802Z,1.50
2023-05-05T05:48:54.393Z,1.17
2023-05-05T05:51:58.001Z,1.40
2023-05-05T05:55:00.412Z,1.20
2023-05-05T05:58:02.872Z,1.42
2023-05-05T06:01:05.958Z,1.50
2023-05-05T06:04:09.515Z,1.40
2023-05-05T06:07:14.007Z,1.52
2023-05-05T06:10:27.357Z,1.60
2023-05-05T06:13:36.338Z,1.70
2023-05-05T06:16:39.268Z,3.38
2023-05-05T06:19:46.488Z,3.67
2023-05-05T06:22:48.783Z,3.85
2023-05-05T06:25:52.617Z,3.40
2023-05-05T06:28:54.837Z,3.42
2023-05-05T06:31:57.322Z,3.92
2023-05-05T06:35:00.366Z,3.22
2023-05-05T06:38:03.431Z,3.10
2023-05-05T06:41:06.073Z,3.15
2023-05-05T06:44:09.142Z,3.67
2023-05-05T06:47:12.269Z,3.80
2023-05-05T06:50:15.183Z,14.48
2023-05-05T06:53:17.510Z,20.33
2023-05-05T06:56:21.021Z,17.83
2023-05-05T06:59:23.985Z,14.75
2023-05-05T07:02:27.135Z,14.13
2023-05-05T07:05:30.514Z,13.70
2023-05-05T07:08:33.461Z,12.30
2023-05-05T07:11:36.122Z,10.93
2023-05-05T07:14:38.435Z,9.75
2023-05-05T07:17:41.187Z,8.20
2023-05-05T07:20:44.021Z,7.63
2023-05-05T07:23:47.221Z,6.75
2023-05-05T07:26:50.715Z,6.55
2023-05-05T07:29:53.684Z,6.50
2023-05-05T07:32:56.746Z,6.43
2023-05-05T07:35:59.677Z,4.80
2023-05-05T07:39:02.342Z,5.18
2023-05-05T07:42:05.800Z,4.50
2023-05-05T07:45:08.437Z,4.53
2023-05-05T07:48:10.966Z,3.90
2023-05-05T07:51:13.223Z,3.80
2023-05-05T07:54:15.636Z,3.72
2023-05-05T07:57:19.472Z,3.65
2023-05-05T08:00:23.001Z,3.33
2023-05-05T08:03:27.195Z,3.35
2023-05-05T08:06:31.195Z,3.20
2023-05-05T08:09:33.713Z,2.97
2023-05-05T08:12:36.471Z,3.22
2023-05-05T08:15:39.710Z,2.92
2023-05-05T08:18:43.229Z,2.55
2023-05-05T08:21:45.995Z,2.50
2023-05-05T08:24:48.232Z,2.75
2023-05-05T08:27:51.133Z,2.10
2023-05-05T08:30:54.120Z,2.30
2023-05-05T08:33:56.811Z,1.90
2023-05-05T08:36:59.258Z,2.03
2023-05-05T08:40:01.442Z,1.80
2023-05-05T08:43:03.827Z,2.30
2023-05-05T08:46:06.208Z,2.10
2023-05-05T08:49:08.410Z,1.98
2023-05-05T08:52:11.756Z,1.60
2023-05-05T08:55:14.766Z,1.88
2023-05-05T08:58:17.918Z,1.90
2023-05-05T09:01:21.751Z,1.77
2023-05-05T09:04:24.565Z,1.58
2023-05-05T09:07:26.872Z,1.70
2023-05-05T09:10:29.188Z,1.85
2023-05-05T09:13:32.026Z,1.40
2023-05-05T09:16:35.632Z,1.45
2023-05-05T09:19:38.383Z,1.33
2023-05-05T09:22:41.401Z,1.35
2023-05-05T09:25:44.579Z,1.20
2023-05-05T09:28:47.552Z,1.42
2023-05-05T09:31:50.614Z,1.50
2023-05-05T09:34:53.184Z,1.70
2023-05-05T09:37:56.211Z,1.25
2023-05-05T09:40:58.934Z,1.50
2023-05-05T09:44:03.014Z,1.50
2023-05-05T09:47:18.140Z,1.30
2023-05-05T09:50:28.776Z,1.20
2023-05-05T09:53:31.710Z,1.30
2023-05-05T09:56:35.293Z,1.40
2023-05-05T09:59:39.173Z,1.23
2023-05-05T10:02:42.503Z,1.17
2023-05-05T10:05:45.363Z,1.00
2023-05-05T10:08:47.888Z,0.95
2023-05-05T10:11:50.726Z,1.10
2023-05-05T10:14:53.403Z,0.90
2023-05-05T10:18:06.902Z,0.95
2023-05-05T10:21:10.994Z,1.00
2023-05-05T10:24:13.569Z,1.00
2023-05-05T10:27:16.756Z,1.10
2023-05-05T10:30:19.856Z,0.88
2023-05-05T10:36:27.770Z,0.70
2023-05-05T10:39:30.586Z,0.77
2023-05-05T10:42:33.334Z,0.75
2023-05-05T10:45:37.929Z,0.82
2023-05-05T10:48:41.195Z,0.60
2023-05-05T10:51:44.464Z,1.00
2023-05-05T10:54:48.241Z,0.77
2023-05-05T10:57:51.191Z,0.82
2023-05-05T11:00:55.143Z,0.80
2023-05-05T11:03:58.656Z,0.93
2023-05-05T11:07:02.209Z,1.15
2023-05-05T11:10:04.646Z,1.10
2023-05-05T11:13:07.709Z,0.80
2023-05-05T11:16:11.232Z,0.85
2023-05-05T11:19:14.006Z,0.90
2023-05-05T11:22:16.764Z,0.90
2023-05-05T11:25:19.314Z,0.93
2023-05-05T11:28:21.805Z,0.85
2023-05-05T11:31:25.162Z,0.70
2023-05-05T11:34:28.770Z,0.80
2023-05-05T11:37:31.747Z,0.70
2023-05-05T11:40:34.763Z,0.60
2023-05-05T11:43:37.336Z,0.65
2023-05-05T11:46:40.356Z,0.80
2023-05-05T11:49:43.135Z,0.70
2023-05-05T11:52:45.786Z,0.65
2023-05-05T11:55:48.295Z,0.85
2023-05-05T11:58:51.556Z,1.20
2023-05-05T12:01:54.755Z,0.88
2023-05-05T12:04:57.587Z,1.00
2023-05-05T12:07:59.942Z,0.60
2023-05-05T12:11:02.588Z,0.65
2023-05-05T12:14:06.042Z,0.73
2023-05-05T12:17:09.251Z,0.88
2023-05-05T12:20:12.317Z,0.60
2023-05-05T12:23:15.272Z,0.90
2023-05-05T12:26:18.285Z,0.60
2023-05-05T12:29:21.780Z,0.80
2023-05-05T12:32:26.816Z,0.65
2023-05-05T12:35:29.182Z,0.88
2023-05-05T12:38:31.929Z,0.60
2023-05-05T12:41:34.623Z,0.70
2023-05-05T12:44:36.978Z,0.80
2023-05-05T12:47:40.788Z,0.57
2023-05-05T12:50:43.711Z,0.70
2023-05-05T12:53:46.078Z,0.82
2023-05-05T12:56:49.457Z,0.50
2023-05-05T12:59:51.711Z,0.60
2023-05-05T13:02:54.807Z,0.80
2023-05-05T13:05:58.789Z,0.70
2023-05-05T13:09:03.826Z,0.70
2023-05-05T13:12:06.765Z,0.52
2023-05-05T13:15:09.668Z,0.70
2023-05-05T13:18:13.484Z,1.00
2023-05-05T13:21:16.073Z,0.75
2023-05-05T13:24:28.674Z,0.80
2023-05-05T13:27:37.662Z,0.80
2023-05-05T13:30:40.506Z,0.73
2023-05-05T13:33:43.208Z,0.90
2023-05-05T13:36:45.212Z,1.00
2023-05-05T13:39:47.558Z,0.93
2023-05-05T13:42:50.263Z,0.65
2023-05-05T13:45:53.100Z,0.80
2023-05-05T13:48:56.773Z,0.73
2023-05-05T13:52:00.620Z,0.80
2023-05-05T13:55:02.632Z,0.63
2023-05-05T13:58:05.248Z,0.60
2023-05-05T14:01:08.081Z,0.60
2023-05-05T14:04:11.368Z,0.55
2023-05-05T14:07:14.675Z,0.60
2023-05-05T14:10:17.461Z,0.65
2023-05-05T14:13:20.778Z,0.95
2023-05-05T14:16:23.934Z,0.75
2023-05-05T14:19:26.543Z,0.80
2023-05-05T14:22:29.289Z,0.90
2023-05-05T14:25:32.117Z,0.63
2023-05-05T14:28:35.182Z,0.52
2023-05-05T14:31:38.631Z,0.60
2023-05-05T14:34:42.116Z,0.68
2023-05-05T14:37:45.515Z,0.70
2023-05-05T14:40:48.840Z,0.70
2023-05-05T14:43:51.682Z,0.50
2023-05-05T14:46:54.350Z,0.68
2023-05-05T14:49:56.811Z,0.60
2023-05-05T14:52:59.023Z,0.50
2023-05-05T14:56:02.306Z,0.70
2023-05-05T14:59:05.826Z,0.50
2023-05-05T15:02:09.296Z,1.00
2023-05-05T15:05:12.209Z,1.73
2023-05-05T15:08:15.294Z,1.50
2023-05-05T15:11:18.036Z,1.50
2023-05-05T15:14:21.103Z,1.60
2023-05-05T15:17:24.598Z,1.40
2023-05-05T15:20:27.465Z,1.65
2023-05-05T15:23:30.177Z,1.70
2023-05-05T15:26:32.494Z,2.50
2023-05-05T15:29:35.362Z,3.25
2023-05-05T15:32:37.760Z,3.70
2023-05-05T15:35:39.786Z,4.63
2023-05-05T15:38:42.380Z,4.03
2023-05-05T15:41:45.161Z,4.00
2023-05-05T15:44:47.909Z,4.25
2023-05-05T15:47:50.813Z,3.50
2023-05-05T15:50:53.541Z,3.28
2023-05-05T15:53:56.272Z,2.92
2023-05-05T15:56:58.954Z,2.70
2023-05-05T16:00:02.100Z,2.50
2023-05-05T16:03:09.420Z,2.80
2023-05-05T16:06:12.199Z,2.28
2023-05-05T16:09:14.934Z,1.95
2023-05-05T16:12:17.165Z,1.90
2023-05-05T16:15:20.210Z,1.65
2023-05-05T16:18:24.224Z,1.30
2023-05-05T16:21:28.044Z,1.20
2023-05-05T16:24:31.167Z,1.40
2023-05-05T16:27:34.499Z,1.30
2023-05-05T16:30:37.422Z,1.00
2023-05-05T16:33:40.512Z,0.93
2023-05-05T16:36:44.389Z,0.90
2023-05-05T16:39:47.298Z,0.77
2023-05-05T16:42:50.687Z,0.77
2023-05-05T16:45:53.426Z,0.80
2023-05-05T16:48:57.194Z,0.60
2023-05-05T16:52:00.137Z,0.70
2023-05-05T16:55:02.699Z,1.90
2023-05-05T16:58:06.043Z,2.97
2023-05-05T17:01:10.083Z,2.80
2023-05-05T17:04:12.959Z,3.30
2023-05-05T17:07:16.533Z,4.25
2023-05-05T17:10:18.809Z,3.75
2023-05-05T17:13:21.624Z,3.50
2023-05-05T17:16:24.769Z,2.78
2023-05-05T17:19:29.147Z,2.30
2023-05-05T17:22:32.464Z,2.10
2023-05-05T17:25:34.813Z,2.00
2023-05-05T17:28:37.088Z,1.55
2023-05-05T17:31:40.027Z,1.52
2023-05-05T17:34:43.110Z,1.20
2023-05-05T17:37:46.542Z,1.30
2023-05-05T17:40:48.968Z,1.02
2023-05-05T17:43:52.454Z,1.13
2023-05-05T17:46:54.681Z,0.70
2023-05-05T17:49:56.918Z,0.80
2023-05-05T17:53:00.065Z,1.00
2023-05-05T17:56:03.132Z,0.80
2023-05-05T17:59:05.869Z,0.70
2023-05-05T18:02:08.713Z,0.63
2023-05-05T18:05:11.956Z,0.70
2023-05-05T18:08:15.292Z,0.70
2023-05-05T18:11:18.240Z,0.50
2023-05-05T18:14:21.105Z,0.85
2023-05-05T18:17:25.369Z,0.57
2023-05-05T18:20:29.489Z,0.60
2023-05-05T18:23:31.946Z,0.75
2023-05-05T18:26:34.171Z,0.63
2023-05-05T18:29:37.309Z,0.82
2023-05-05T18:32:40.504Z,0.80
2023-05-05T18:35:42.835Z,0.80
2023-05-05T18:38:46.135Z,0.70
2023-05-05T18:41:48.748Z,0.70
2023-05-05T18:44:52.703Z,0.80
2023-05-05T18:47:56.326Z,0.80
2023-05-05T18:51:00.172Z,0.90
2023-05-05T18:54:03.103Z,0.88
2023-05-05T18:57:06.320Z,0.80
2023-05-05T19:00:09.172Z,0.70
2023-05-05T19:03:11.966Z,0.60
2023-05-05T19:06:14.659Z,0.63
2023-05-05T19:09:18.135Z,0.50
2023-05-05T19:12:20.864Z,0.68
2023-05-05T19:15:23.831Z,0.60
2023-05-05T19:18:27.418Z,0.50
2023-05-05T19:21:30.641Z,0.50
2023-05-05T19:24:33.741Z,0.55
2023-05-05T19:27:37.241Z,0.50
2023-05-05T19:30:40.111Z,0.50
2023-05-05T19:33:42.865Z,0.40
2023-05-05T19:36:46.179Z,0.52
2023-05-05T19:39:49.790Z,0.60
2023-05-05T19:42:53.269Z,0.50
2023-05-05T19:45:56.316Z,0.45
2023-05-05T19:48:59.438Z,0.60
2023-05-05T19:52:02.445Z,0.50
2023-05-05T19:55:05.254Z,0.47
2023-05-05T19:58:08.028Z,0.50
2023-05-05T20:01:11.065Z,0.60
2023-05-05T20:04:13.710Z,0.60
2023-05-05T20:07:16.301Z,0.50
2023-05-05T20:10:19.089Z,0.43
2023-05-05T20:13:21.615Z,0.40
2023-05-05T20:16:24.534Z,0.40
2023-05-05T20:19:27.828Z,0.43
2023-05-05T20:22:30.814Z,0.38
2023-05-05T20:25:33.920Z,0.60
2023-05-05T20:28:37.212Z,0.50
2023-05-05T20:31:39.320Z,0.40
2023-05-05T20:34:42.276Z,0.50
2023-05-05T20:37:44.695Z,0.50
2023-05-05T20:40:47.585Z,0.40
2023-05-05T20:43:50.178Z,0.40
2023-05-05T20:46:54.012Z,0.40
2023-05-05T20:49:57.222Z,0.47
2023-05-05T20:53:00.483Z,0.40
2023-05-05T20:56:05.126Z,0.40
2023-05-05T20:59:08.982Z,0.47
2023-05-05T21:02:12.966Z,0.32
2023-05-05T21:05:16.083Z,0.47
2023-05-05T21:08:18.816Z,0.30
2023-05-05T21:11:21.532Z,0.40
2023-05-05T21:14:24.389Z,0.57
2023-05-05T21:17:28.109Z,0.50
2023-05-05T21:20:31.987Z,0.50
2023-05-05T21:23:35.508Z,0.45
2023-05-05T21:26:38.354Z,0.40
2023-05-05T21:29:41.434Z,0.40
2023-05-05T21:32:43.705Z,0.30
2023-05-05T21:35:46.129Z,0.63
2023-05-05T21:38:48.810Z,0.50
2023-05-05T21:41:51.548Z,0.40
2023-05-05T21:44:54.606Z,0.52
2023-05-05T21:47:58.200Z,0.50
2023-05-05T21:51:00.997Z,0.70
2023-05-05T21:54:03.933Z,0.60
2023-05-05T21:57:07.026Z,0.60
2023-05-05T22:00:11.154Z,0.55
2023-05-05T22:03:17.300Z,0.60
2023-05-05T22:06:20.406Z,0.60
2023-05-05T22:09:23.248Z,0.55
2023-05-05T22:12:25.529Z,0.50
2023-05-05T22:15:32.804Z,0.63
2023-05-05T22:18:41.866Z,0.70
2023-05-05T22:21:45.456Z,0.47
2023-05-05T22:24:49.063Z,0.52
2023-05-05T22:27:51.592Z,0.60
2023-05-05T22:30:54.700Z,0.70
2023-05-05T22:33:57.769Z,0.40
2023-05-05T22:37:01.046Z,0.60
2023-05-05T22:40:03.588Z,0.50
2023-05-05T22:43:06.544Z,0.52
2023-05-05T22:46:10.623Z,0.70
2023-05-05T22:49:14.224Z,0.60
2023-05-05T22:52:16.321Z,0.63
2023-05-05T22:55:19.302Z,0.70
2023-05-05T22:58:22.341Z,0.73
2023-05-05T23:01:26.110Z,0.80
2023-05-05T23:04:29.105Z,0.90
2023-05-05T23:07:32.051Z,0.70
2023-05-05T23:10:35.105Z,0.57
2023-05-05T23:13:37.828Z,0.70
2023-05-05T23:16:40.987Z,0.70
2023-05-05T23:19:44.412Z,0.80
2023-05-05T23:22:48.573Z,0.70
2023-05-05T23:25:51.926Z,0.95
2023-05-05T23:28:55.304Z,0.90
2023-05-05T23:31:58.527Z,0.65
2023-05-05T23:35:01.515Z,0.68
2023-05-05T23:38:04.630Z,0.73
2023-05-05T23:41:07.314Z,0.90
2023-05-05T23:44:10.808Z,0.70
2023-05-05T23:47:13.331Z,0.80
2023-05-05T23:50:16.067Z,0.70
2023-05-05T23:53:19.236Z,0.70
2023-05-05T23:56:23.229Z,0.77
2023-05-05T23:59:27.165Z,0.60
